createdAt,value
2023-05-05T04:58:15.967Z,9.27
2023-05-05T04:59:15.930Z,9.36
2023-05-05T05:00:15.947Z,9.44
2023-05-05T05:01:15.934Z,9.49
2023-05-05T05:02:15.936Z,9.62
2023-05-05T05:03:15.952Z,9.69
2023-05-05T05:04:15.855Z,9.82
2023-05-05T05:05:15.864Z,9.92
2023-05-05T05:06:15.854Z,10.00
2023-05-05T05:07:15.814Z,10.09
2023-05-05T06:13:04.908Z,15.10
2023-05-05T06:14:04.888Z,15.17
2023-05-05T06:15:04.869Z,15.25
2023-05-05T06:16:04.879Z,15.30
2023-05-05T06:17:04.842Z,15.32
2023-05-05T06:18:04.832Z,15.37
2023-05-05T06:19:04.835Z,15.39
2023-05-05T06:20:04.794Z,15.33
2023-05-05T06:21:04.793Z,15.29
2023-05-05T06:22:04.846Z,15.43
2023-05-05T06:35:46.546Z,16.74
2023-05-05T06:36:46.544Z,16.87
2023-05-05T06:37:48.274Z,17.01
2023-05-05T06:38:47.233Z,17.13
2023-05-05T06:39:46.474Z,17.30
2023-05-05T07:18:33.237Z,19.93
2023-05-05T07:19:33.577Z,20.12
2023-05-05T07:20:33.194Z,20.26
2023-05-05T07:21:33.214Z,20.33
2023-05-05T07:22:34.893Z,20.34
2023-05-05T07:23:33.153Z,20.55
2023-05-05T07:24:33.182Z,20.80
2023-05-05T07:25:33.120Z,21.00
2023-05-05T07:26:33.196Z,21.20
2023-05-05T07:27:33.115Z,21.33
2023-05-05T08:50:45.757Z,26.60
2023-05-05T08:51:46.479Z,26.08
2023-05-05T08:52:45.897Z,25.78
2023-05-05T08:53:45.709Z,25.74
2023-05-05T08:54:45.708Z,26.13
2023-05-05T08:55:45.734Z,26.59
2023-05-05T08:56:45.664Z,26.51
2023-05-05T08:57:45.662Z,26.88
2023-05-05T08:58:45.667Z,27.20
2023-05-05T08:59:45.651Z,27.52
2023-05-05T09:01:45.130Z,27.43
2023-05-05T09:02:45.141Z,27.47
2023-05-05T09:03:45.105Z,27.63
2023-05-05T09:04:45.113Z,27.68
2023-05-05T09:05:45.087Z,27.81
2023-05-05T09:06:45.049Z,27.82
2023-05-05T09:07:45.019Z,27.45
2023-05-05T09:08:45.020Z,27.64
2023-05-05T09:09:45.022Z,27.55
2023-05-05T09:10:45.000Z,27.85
2023-05-05T09:56:40.944Z,28.30
2023-05-05T09:57:40.890Z,28.67
2023-05-05T09:58:40.963Z,28.86
2023-05-05T09:59:40.876Z,28.46
2023-05-05T10:00:43.602Z,28.47
2023-05-05T10:01:40.918Z,28.18
2023-05-05T10:02:40.860Z,28.03
2023-05-05T10:03:40.838Z,28.40
2023-05-05T10:04:40.878Z,28.18
2023-05-05T10:05:40.811Z,28.03
2023-05-05T10:07:10.482Z,27.83
2023-05-05T10:08:10.475Z,28.01
2023-05-05T10:09:10.473Z,28.62
2023-05-05T10:10:10.668Z,28.67
2023-05-05T10:11:10.459Z,28.13
2023-05-05T10:12:10.427Z,27.60
2023-05-05T10:13:10.436Z,27.53
2023-05-05T10:14:10.422Z,27.83
2023-05-05T10:15:10.387Z,27.81
2023-05-05T10:16:10.445Z,28.13
2023-05-05T10:35:37.116Z,30.81
2023-05-05T10:36:37.126Z,31.05
2023-05-05T10:37:37.121Z,30.83
2023-05-05T10:38:37.085Z,31.17
2023-05-05T10:39:37.076Z,31.25
2023-05-05T10:40:37.060Z,31.41
2023-05-05T10:41:37.063Z,31.42
2023-05-05T10:42:37.064Z,31.36
2023-05-05T10:43:37.036Z,30.71
2023-05-05T10:44:37.052Z,30.38
2023-05-05T11:11:22.198Z,30.24
2023-05-05T11:12:21.930Z,30.06
2023-05-05T11:13:21.973Z,29.83
2023-05-05T11:14:21.918Z,29.22
2023-05-05T11:15:21.885Z,28.89
2023-05-05T11:16:21.870Z,28.67
2023-05-05T11:17:21.841Z,28.83
2023-05-05T11:18:21.914Z,29.00
2023-05-05T11:19:21.849Z,29.22
2023-05-05T11:20:21.840Z,28.78
2023-05-05T12:46:47.933Z,27.95
2023-05-05T12:47:47.924Z,28.13
2023-05-05T12:48:48.530Z,28.16
2023-05-05T12:49:47.908Z,28.16
2023-05-05T12:50:47.872Z,28.12
2023-05-05T12:51:47.853Z,28.00
2023-05-05T12:52:47.837Z,27.95
2023-05-05T12:53:47.822Z,27.90
2023-05-05T12:54:47.839Z,27.95
2023-05-05T12:55:47.816Z,27.97
2023-05-05T13:07:54.130Z,26.98
2023-05-05T13:08:54.108Z,26.73
2023-05-05T13:09:54.093Z,26.60
2023-05-05T13:10:54.088Z,26.45
2023-05-05T13:11:54.056Z,26.44
2023-05-05T13:12:54.167Z,26.41
2023-05-05T13:13:54.034Z,26.33
2023-05-05T13:14:54.073Z,26.37
2023-05-05T13:33:21.496Z,26.34
2023-05-05T13:34:21.480Z,26.31
2023-05-05T13:35:21.484Z,26.42
2023-05-05T13:36:21.468Z,26.34
2023-05-05T13:37:21.457Z,26.46
2023-05-05T13:38:21.430Z,26.34
2023-05-05T13:39:21.482Z,26.30
2023-05-05T13:40:22.303Z,26.31
2023-05-05T13:41:21.404Z,26.49
2023-05-05T13:42:21.392Z,26.46
2023-05-05T14:33:27.633Z,24.84
2023-05-05T14:34:27.607Z,24.81
2023-05-05T14:35:27.626Z,24.79
2023-05-05T14:36:27.628Z,24.69
2023-05-05T14:37:27.568Z,24.63
